sensor_id;sensor_type;location;lat;lon;timestamp;pressure;altitude;pressure_sealevel;temperature;humidity
6038;BME280;3047;42.600;23.470;2022-11-02T00:02:20;93709.97;;;13.89;70.82
6038;BME280;3047;42.600;23.470;2022-11-02T00:04:47;93714.16;;;13.91;70.54
6038;BME280;3047;42.600;23.470;2022-11-02T00:07:14;93711.38;;;13.71;71.19
6038;BME280;3047;42.600;23.470;2022-11-02T00:09:42;93714.59;;;13.77;71.01
6038;BME280;3047;42.600;23.470;2022-11-02T00:12:08;93711.34;;;13.72;70.92
6038;BME280;3047;42.600;23.470;2022-11-02T00:14:35;93607.97;;;12.93;71.06
6038;BME280;3047;42.600;23.470;2022-11-02T00:17:02;93638.56;;;13.17;71.15
6038;BME280;3047;42.600;23.470;2022-11-02T00:19:29;93710.56;;;13.70;70.90
6038;BME280;3047;42.600;23.470;2022-11-02T00:21:56;93713.09;;;13.70;71.19
6038;BME280;3047;42.600;23.470;2022-11-02T00:24:23;93716.78;;;13.88;68.93
6038;BME280;3047;42.600;23.470;2022-11-02T00:26:51;93713.25;;;13.92;68.58
6038;BME280;3047;42.600;23.470;2022-11-02T00:29:19;93711.50;;;13.94;68.81
6038;BME280;3047;42.600;23.470;2022-11-02T00:31:47;93720.72;;;13.97;68.70
6038;BME280;3047;42.600;23.470;2022-11-02T00:34:14;93711.84;;;13.83;69.36
6038;BME280;3047;42.600;23.470;2022-11-02T00:36:41;93705.28;;;13.76;69.56
6038;BME280;3047;42.600;23.470;2022-11-02T00:39:08;93679.81;;;13.51;69.61
6038;BME280;3047;42.600;23.470;2022-11-02T00:41:35;93703.72;;;13.72;69.89
6038;BME280;3047;42.600;23.470;2022-11-02T00:44:03;93703.41;;;13.83;69.91
6038;BME280;3047;42.600;23.470;2022-11-02T00:46:30;93699.53;;;13.71;70.36
6038;BME280;3047;42.600;23.470;2022-11-02T00:48:56;93705.78;;;13.59;71.34
6038;BME280;3047;42.600;23.470;2022-11-02T00:51:23;93699.22;;;13.54;71.13
6038;BME280;3047;42.600;23.470;2022-11-02T00:53:50;93699.44;;;13.46;70.86
6038;BME280;3047;42.600;23.470;2022-11-02T00:56:17;93693.41;;;13.50;70.98
6038;BME280;3047;42.600;23.470;2022-11-02T00:58:43;93695.03;;;13.51;71.05
6038;BME280;3047;42.600;23.470;2022-11-02T01:01:12;93688.94;;;13.57;71.45
6038;BME280;3047;42.600;23.470;2022-11-02T01:03:38;93693.31;;;13.53;71.38
6038;BME280;3047;42.600;23.470;2022-11-02T01:06:09;93665.78;;;13.40;71.24
6038;BME280;3047;42.600;23.470;2022-11-02T01:08:36;93694.59;;;13.39;71.46
6038;BME280;3047;42.600;23.470;2022-11-02T01:11:11;93691.16;;;13.10;73.11
6038;BME280;3047;42.600;23.470;2022-11-02T01:13:39;93692.28;;;13.00;73.22
6038;BME280;3047;42.600;23.470;2022-11-02T01:16:07;93697.13;;;12.78;74.51
6038;BME280;3047;42.600;23.470;2022-11-02T01:18:35;93672.03;;;12.67;75.26
6038;BME280;3047;42.600;23.470;2022-11-02T01:21:02;93691.16;;;12.79;74.97
6038;BME280;3047;42.600;23.470;2022-11-02T01:23:30;93687.75;;;12.80;74.72
6038;BME280;3047;42.600;23.470;2022-11-02T01:25:57;93690.22;;;12.83;74.43
6038;BME280;3047;42.600;23.470;2022-11-02T01:28:24;93691.22;;;12.77;74.71
6038;BME280;3047;42.600;23.470;2022-11-02T01:30:50;93635.44;;;12.48;74.32
6038;BME280;3047;42.600;23.470;2022-11-02T01:33:17;93691.16;;;12.80;74.39
6038;BME280;3047;42.600;23.470;2022-11-02T01:35:45;93688.34;;;12.90;74.09
6038;BME280;3047;42.600;23.470;2022-11-02T01:38:12;93685.50;;;13.00;73.30
6038;BME280;3047;42.600;23.470;2022-11-02T01:40:39;93695.25;;;12.84;73.97
6038;BME280;3047;42.600;23.470;2022-11-02T01:43:19;93692.09;;;12.76;74.28
6038;BME280;3047;42.600;23.470;2022-11-02T01:45:46;93681.09;;;12.76;74.71
6038;BME280;3047;42.600;23.470;2022-11-02T01:48:14;93686.44;;;12.67;75.57
6038;BME280;3047;42.600;23.470;2022-11-02T01:50:41;93684.56;;;12.73;74.82
6038;BME280;3047;42.600;23.470;2022-11-02T01:53:10;93689.59;;;12.75;74.88
6038;BME280;3047;42.600;23.470;2022-11-02T01:55:38;93685.72;;;12.93;73.51
6038;BME280;3047;42.600;23.470;2022-11-02T01:58:07;93690.28;;;13.11;73.22
6038;BME280;3047;42.600;23.470;2022-11-02T02:00:35;93685.81;;;13.19;73.30
6038;BME280;3047;42.600;23.470;2022-11-02T02:03:06;93683.25;;;13.21;72.97
6038;BME280;3047;42.600;23.470;2022-11-02T02:05:37;93685.63;;;13.27;72.65
6038;BME280;3047;42.600;23.470;2022-11-02T02:08:05;93681.97;;;13.37;72.27
6038;BME280;3047;42.600;23.470;2022-11-02T02:10:35;93678.69;;;13.32;72.13
6038;BME280;3047;42.600;23.470;2022-11-02T02:13:03;93677.03;;;13.31;72.63
6038;BME280;3047;42.600;23.470;2022-11-02T02:15:48;93665.94;;;13.35;72.31
6038;BME280;3047;42.600;23.470;2022-11-02T02:18:21;93683.00;;;13.58;71.70
6038;BME280;3047;42.600;23.470;2022-11-02T02:21:02;93648.44;;;13.54;71.17
6038;BME280;3047;42.600;23.470;2022-11-02T02:26:51;93672.94;;;13.83;70.41
6038;BME280;3047;42.600;23.470;2022-11-02T02:29:27;93673.66;;;13.87;70.44
6038;BME280;3047;42.600;23.470;2022-11-02T02:32:03;93667.84;;;13.83;70.36
6038;BME280;3047;42.600;23.470;2022-11-02T02:34:36;93651.47;;;13.65;69.63
6038;BME280;3047;42.600;23.470;2022-11-02T02:37:06;93666.34;;;13.77;69.24
6038;BME280;3047;42.600;23.470;2022-11-02T02:39:40;93636.53;;;13.56;69.88
6038;BME280;3047;42.600;23.470;2022-11-02T02:42:11;93634.88;;;13.55;69.19
6038;BME280;3047;42.600;23.470;2022-11-02T02:44:48;93662.09;;;13.78;68.01
6038;BME280;3047;42.600;23.470;2022-11-02T02:47:19;93670.38;;;13.83;68.43
6038;BME280;3047;42.600;23.470;2022-11-02T02:49:51;93662.81;;;13.81;67.32
6038;BME280;3047;42.600;23.470;2022-11-02T02:52:19;93664.28;;;13.89;67.58
6038;BME280;3047;42.600;23.470;2022-11-02T02:54:49;93662.03;;;13.79;67.01
6038;BME280;3047;42.600;23.470;2022-11-02T02:57:19;93642.03;;;13.69;67.32
6038;BME280;3047;42.600;23.470;2022-11-02T02:59:48;93661.25;;;13.77;67.39
6038;BME280;3047;42.600;23.470;2022-11-02T03:02:19;93661.13;;;13.82;67.47
6038;BME280;3047;42.600;23.470;2022-11-02T03:04:46;93665.97;;;13.88;67.52
6038;BME280;3047;42.600;23.470;2022-11-02T03:07:17;93666.66;;;13.93;67.29
6038;BME280;3047;42.600;23.470;2022-11-02T03:09:49;93670.16;;;13.91;68.52
6038;BME280;3047;42.600;23.470;2022-11-02T03:12:22;93655.22;;;13.81;67.56
6038;BME280;3047;42.600;23.470;2022-11-02T03:15:05;93669.66;;;13.79;67.49
6038;BME280;3047;42.600;23.470;2022-11-02T03:17:44;93669.78;;;13.75;68.62
6038;BME280;3047;42.600;23.470;2022-11-02T03:20:20;93663.31;;;13.66;70.43
6038;BME280;3047;42.600;23.470;2022-11-02T03:22:55;93657.41;;;13.38;71.00
6038;BME280;3047;42.600;23.470;2022-11-02T03:25:26;93668.75;;;13.26;70.89
6038;BME280;3047;42.600;23.470;2022-11-02T03:27:57;93640.44;;;13.10;70.73
6038;BME280;3047;42.600;23.470;2022-11-02T03:30:30;93674.00;;;13.48;71.12
6038;BME280;3047;42.600;23.470;2022-11-02T03:33:04;93678.16;;;13.50;70.81
6038;BME280;3047;42.600;23.470;2022-11-02T03:35:35;93671.47;;;13.48;71.04
6038;BME280;3047;42.600;23.470;2022-11-02T03:38:05;93678.75;;;13.30;70.76
6038;BME280;3047;42.600;23.470;2022-11-02T03:40:39;93670.50;;;13.22;71.26
6038;BME280;3047;42.600;23.470;2022-11-02T03:43:08;93658.25;;;13.07;71.89
6038;BME280;3047;42.600;23.470;2022-11-02T03:45:40;93660.19;;;12.99;72.73
6038;BME280;3047;42.600;23.470;2022-11-02T03:48:11;93653.53;;;12.95;72.34
6038;BME280;3047;42.600;23.470;2022-11-02T03:50:42;93656.97;;;12.94;71.21
6038;BME280;3047;42.600;23.470;2022-11-02T03:53:15;93660.53;;;12.86;71.22
6038;BME280;3047;42.600;23.470;2022-11-02T03:55:47;93656.16;;;12.92;70.65
6038;BME280;3047;42.600;23.470;2022-11-02T03:58:16;93654.78;;;12.81;70.59
6038;BME280;3047;42.600;23.470;2022-11-02T04:00:47;93652.16;;;12.84;69.97
6038;BME280;3047;42.600;23.470;2022-11-02T04:03:16;93657.13;;;12.87;69.59
6038;BME280;3047;42.600;23.470;2022-11-02T04:05:43;93666.28;;;12.93;69.94
6038;BME280;3047;42.600;23.470;2022-11-02T04:08:11;93654.22;;;13.00;69.61
6038;BME280;3047;42.600;23.470;2022-11-02T04:10:50;93657.13;;;12.87;70.03
6038;BME280;3047;42.600;23.470;2022-11-02T04:13:34;93660.59;;;12.85;70.62
6038;BME280;3047;42.600;23.470;2022-11-02T04:16:20;93652.97;;;12.85;69.84
6038;BME280;3047;42.600;23.470;2022-11-02T04:18:47;93655.81;;;12.74;69.83
6038;BME280;3047;42.600;23.470;2022-11-02T04:21:31;93650.91;;;12.68;70.71
6038;BME280;3047;42.600;23.470;2022-11-02T04:23:58;93655.38;;;12.60;71.04
6038;BME280;3047;42.600;23.470;2022-11-02T04:26:42;93654.56;;;12.58;70.78
6038;BME280;3047;42.600;23.470;2022-11-02T04:29:10;93646.41;;;12.47;70.87
6038;BME280;3047;42.600;23.470;2022-11-02T04:31:38;93649.94;;;12.41;70.72
6038;BME280;3047;42.600;23.470;2022-11-02T04:34:04;93641.78;;;12.30;71.48
6038;BME280;3047;42.600;23.470;2022-11-02T04:36:31;93644.28;;;12.31;71.57
6038;BME280;3047;42.600;23.470;2022-11-02T04:38:58;93634.88;;;12.36;71.46
6038;BME280;3047;42.600;23.470;2022-11-02T04:41:24;93655.66;;;12.49;71.72
6038;BME280;3047;42.600;23.470;2022-11-02T04:44:11;93653.88;;;12.51;72.12
6038;BME280;3047;42.600;23.470;2022-11-02T04:46:41;93652.84;;;12.58;72.99
6038;BME280;3047;42.600;23.470;2022-11-02T04:49:09;93660.72;;;12.49;73.02
6038;BME280;3047;42.600;23.470;2022-11-02T04:51:37;93659.69;;;12.56;73.54
6038;BME280;3047;42.600;23.470;2022-11-02T04:54:05;93657.28;;;12.50;73.84
6038;BME280;3047;42.600;23.470;2022-11-02T04:56:32;93660.59;;;12.54;73.62
6038;BME280;3047;42.600;23.470;2022-11-02T04:58:59;93665.19;;;12.71;73.21
6038;BME280;3047;42.600;23.470;2022-11-02T05:01:27;93642.44;;;12.69;73.65
6038;BME280;3047;42.600;23.470;2022-11-02T05:03:55;93664.09;;;12.81;74.02
6038;BME280;3047;42.600;23.470;2022-11-02T05:06:22;93662.41;;;12.80;73.51
6038;BME280;3047;42.600;23.470;2022-11-02T05:08:50;93662.53;;;12.75;74.63
6038;BME280;3047;42.600;23.470;2022-11-02T05:11:17;93666.84;;;12.72;74.25
6038;BME280;3047;42.600;23.470;2022-11-02T05:13:44;93653.53;;;12.65;74.10
6038;BME280;3047;42.600;23.470;2022-11-02T05:16:14;93667.72;;;12.71;74.92
6038;BME280;3047;42.600;23.470;2022-11-02T05:18:41;93677.16;;;12.66;75.79
6038;BME280;3047;42.600;23.470;2022-11-02T05:21:10;93672.03;;;12.69;75.40
6038;BME280;3047;42.600;23.470;2022-11-02T05:23:38;93684.56;;;12.73;75.18
6038;BME280;3047;42.600;23.470;2022-11-02T05:26:06;93687.19;;;12.70;75.20
6038;BME280;3047;42.600;23.470;2022-11-02T05:28:34;93657.28;;;12.50;75.50
6038;BME280;3047;42.600;23.470;2022-11-02T05:31:02;93679.75;;;12.64;75.53
6038;BME280;3047;42.600;23.470;2022-11-02T05:33:30;93681.22;;;12.73;76.18
6038;BME280;3047;42.600;23.470;2022-11-02T05:35:57;93689.78;;;12.67;77.11
6038;BME280;3047;42.600;23.470;2022-11-02T05:38:26;93691.28;;;12.74;77.00
6038;BME280;3047;42.600;23.470;2022-11-02T05:40:54;93684.06;;;12.60;78.25
6038;BME280;3047;42.600;23.470;2022-11-02T05:43:22;93689.91;;;12.62;78.06
6038;BME280;3047;42.600;23.470;2022-11-02T05:45:52;93681.47;;;12.62;77.84
6038;BME280;3047;42.600;23.470;2022-11-02T05:48:20;93671.28;;;12.63;77.53
6038;BME280;3047;42.600;23.470;2022-11-02T05:50:47;93703.63;;;12.86;77.18
6038;BME280;3047;42.600;23.470;2022-11-02T05:53:14;93684.16;;;12.89;76.07
6038;BME280;3047;42.600;23.470;2022-11-02T05:55:42;93711.44;;;13.10;75.95
6038;BME280;3047;42.600;23.470;2022-11-02T05:58:09;93715.47;;;13.17;76.31
6038;BME280;3047;42.600;23.470;2022-11-02T06:00:35;93714.44;;;13.24;76.87
6038;BME280;3047;42.600;23.470;2022-11-02T06:03:02;93709.16;;;13.32;76.20
6038;BME280;3047;42.600;23.470;2022-11-02T06:05:29;93715.41;;;13.50;75.99
6038;BME280;3047;42.600;23.470;2022-11-02T06:07:59;93725.34;;;13.56;75.83
6038;BME280;3047;42.600;23.470;2022-11-02T06:10:27;93689.50;;;13.39;75.23
6038;BME280;3047;42.600;23.470;2022-11-02T06:12:56;93735.75;;;13.76;75.23
6038;BME280;3047;42.600;23.470;2022-11-02T06:15:23;93732.69;;;13.93;73.83
6038;BME280;3047;42.600;23.470;2022-11-02T06:17:50;93700.91;;;13.81;73.53
6038;BME280;3047;42.600;23.470;2022-11-02T06:20:17;93729.06;;;14.02;73.81
6038;BME280;3047;42.600;23.470;2022-11-02T06:22:44;93734.16;;;14.00;74.25
6038;BME280;3047;42.600;23.470;2022-11-02T06:25:12;93739.06;;;14.06;74.37
6038;BME280;3047;42.600;23.470;2022-11-02T06:27:39;93728.91;;;14.06;74.56
6038;BME280;3047;42.600;23.470;2022-11-02T06:30:09;93727.78;;;14.15;73.66
6038;BME280;3047;42.600;23.470;2022-11-02T06:32:35;93734.22;;;14.25;73.76
6038;BME280;3047;42.600;23.470;2022-11-02T06:35:02;93734.53;;;14.43;72.79
6038;BME280;3047;42.600;23.470;2022-11-02T06:37:32;93732.94;;;14.65;72.33
6038;BME280;3047;42.600;23.470;2022-11-02T06:39:59;93731.47;;;15.08;71.39
6038;BME280;3047;42.600;23.470;2022-11-02T06:42:26;93721.84;;;15.40;69.19
6038;BME280;3047;42.600;23.470;2022-11-02T06:44:53;93727.03;;;15.60;68.45
6038;BME280;3047;42.600;23.470;2022-11-02T06:47:29;93737.50;;;15.76;67.03
6038;BME280;3047;42.600;23.470;2022-11-02T06:49:57;93699.13;;;15.80;65.42
6038;BME280;3047;42.600;23.470;2022-11-02T06:52:23;93734.66;;;16.68;64.18
6038;BME280;3047;42.600;23.470;2022-11-02T06:54:50;93738.19;;;17.25;61.37
6038;BME280;3047;42.600;23.470;2022-11-02T06:57:17;93738.41;;;17.79;59.25
6038;BME280;3047;42.600;23.470;2022-11-02T06:59:44;93730.31;;;18.24;57.80
6038;BME280;3047;42.600;23.470;2022-11-02T07:02:11;93717.84;;;18.53;57.12
6038;BME280;3047;42.600;23.470;2022-11-02T07:04:39;93727.16;;;18.54;56.64
6038;BME280;3047;42.600;23.470;2022-11-02T07:07:06;93727.88;;;18.92;55.65
6038;BME280;3047;42.600;23.470;2022-11-02T07:09:33;93718.84;;;19.18;54.14
6038;BME280;3047;42.600;23.470;2022-11-02T07:11:59;93724.94;;;19.00;54.17
6038;BME280;3047;42.600;23.470;2022-11-02T07:14:26;93717.97;;;18.67;54.91
6038;BME280;3047;42.600;23.470;2022-11-02T07:16:53;93723.94;;;18.33;55.96
6038;BME280;3047;42.600;23.470;2022-11-02T07:19:19;93725.09;;;18.09;56.90
6038;BME280;3047;42.600;23.470;2022-11-02T07:21:47;93712.69;;;17.63;58.24
6038;BME280;3047;42.600;23.470;2022-11-02T07:24:14;93725.69;;;17.59;59.92
6038;BME280;3047;42.600;23.470;2022-11-02T07:26:41;93719.31;;;17.67;60.24
6038;BME280;3047;42.600;23.470;2022-11-02T07:29:08;93716.56;;;17.72;60.10
6038;BME280;3047;42.600;23.470;2022-11-02T07:31:34;93722.50;;;17.91;60.13
6038;BME280;3047;42.600;23.470;2022-11-02T07:34:01;93711.28;;;17.94;59.83
6038;BME280;3047;42.600;23.470;2022-11-02T07:36:28;93711.38;;;17.92;60.48
6038;BME280;3047;42.600;23.470;2022-11-02T07:38:56;93715.31;;;17.99;59.97
6038;BME280;3047;42.600;23.470;2022-11-02T07:41:23;93712.16;;;17.75;60.93
6038;BME280;3047;42.600;23.470;2022-11-02T07:43:49;93719.25;;;17.50;61.28
6038;BME280;3047;42.600;23.470;2022-11-02T07:46:16;93642.69;;;16.71;62.83
6038;BME280;3047;42.600;23.470;2022-11-02T07:48:43;93720.66;;;16.99;62.82
6038;BME280;3047;42.600;23.470;2022-11-02T07:51:10;93713.91;;;16.77;64.10
6038;BME280;3047;42.600;23.470;2022-11-02T07:53:37;93711.97;;;16.62;64.73
6038;BME280;3047;42.600;23.470;2022-11-02T07:56:05;93715.03;;;16.50;64.97
6038;BME280;3047;42.600;23.470;2022-11-02T07:58:32;93711.25;;;16.38;65.82
6038;BME280;3047;42.600;23.470;2022-11-02T08:01:00;93684.91;;;16.17;65.78
6038;BME280;3047;42.600;23.470;2022-11-02T08:03:27;93716.78;;;16.27;66.83
6038;BME280;3047;42.600;23.470;2022-11-02T08:05:54;93649.22;;;15.75;67.21
6038;BME280;3047;42.600;23.470;2022-11-02T08:08:22;93694.78;;;16.04;67.32
6038;BME280;3047;42.600;23.470;2022-11-02T08:10:50;93704.97;;;16.04;67.36
6038;BME280;3047;42.600;23.470;2022-11-02T08:13:21;93705.28;;;15.97;68.67
6038;BME280;3047;42.600;23.470;2022-11-02T08:15:48;93704.25;;;16.01;68.91
6038;BME280;3047;42.600;23.470;2022-11-02T08:18:17;93707.81;;;15.97;69.35
6038;BME280;3047;42.600;23.470;2022-11-02T08:20:45;93683.69;;;15.83;69.30
6038;BME280;3047;42.600;23.470;2022-11-02T08:23:12;93704.13;;;16.04;69.05
6038;BME280;3047;42.600;23.470;2022-11-02T08:25:40;93694.63;;;16.07;68.52
6038;BME280;3047;42.600;23.470;2022-11-02T08:28:11;93697.59;;;16.19;68.29
6038;BME280;3047;42.600;23.470;2022-11-02T08:30:40;93699.44;;;16.15;68.98
6038;BME280;3047;42.600;23.470;2022-11-02T08:33:09;93694.84;;;16.23;68.33
6038;BME280;3047;42.600;23.470;2022-11-02T08:35:38;93691.47;;;16.23;68.45
6038;BME280;3047;42.600;23.470;2022-11-02T08:38:05;93684.28;;;16.32;67.47
6038;BME280;3047;42.600;23.470;2022-11-02T08:40:33;93685.16;;;16.31;67.62
6038;BME280;3047;42.600;23.470;2022-11-02T08:43:00;93685.84;;;16.37;67.36
6038;BME280;3047;42.600;23.470;2022-11-02T08:45:28;93686.69;;;16.36;67.91
6038;BME280;3047;42.600;23.470;2022-11-02T08:47:57;93644.44;;;16.10;67.53
6038;BME280;3047;42.600;23.470;2022-11-02T08:50:24;93688.25;;;16.40;67.90
6038;BME280;3047;42.600;23.470;2022-11-02T08:52:51;93681.72;;;16.32;68.34
6038;BME280;3047;42.600;23.470;2022-11-02T08:55:18;93692.19;;;16.47;67.73
6038;BME280;3047;42.600;23.470;2022-11-02T08:57:46;93687.88;;;16.49;68.00
6038;BME280;3047;42.600;23.470;2022-11-02T09:00:13;93684.81;;;16.61;67.12
6038;BME280;3047;42.600;23.470;2022-11-02T09:02:41;93680.59;;;16.60;67.18
6038;BME280;3047;42.600;23.470;2022-11-02T09:05:09;93673.63;;;16.64;66.96
6038;BME280;3047;42.600;23.470;2022-11-02T09:07:36;93665.38;;;16.79;66.65
6038;BME280;3047;42.600;23.470;2022-11-02T09:10:04;93648.63;;;16.72;66.52
6038;BME280;3047;42.600;23.470;2022-11-02T09:12:32;93673.31;;;16.92;66.35
6038;BME280;3047;42.600;23.470;2022-11-02T09:14:58;93675.66;;;16.96;66.63
6038;BME280;3047;42.600;23.470;2022-11-02T09:17:25;93674.44;;;17.05;65.96
6038;BME280;3047;42.600;23.470;2022-11-02T09:19:52;93676.72;;;17.11;65.54
6038;BME280;3047;42.600;23.470;2022-11-02T09:22:20;93667.09;;;17.18;65.17
6038;BME280;3047;42.600;23.470;2022-11-02T09:24:47;93671.78;;;17.27;64.69
6038;BME280;3047;42.600;23.470;2022-11-02T09:27:13;93672.50;;;17.29;65.13
6038;BME280;3047;42.600;23.470;2022-11-02T09:29:40;93665.75;;;17.28;65.26
6038;BME280;3047;42.600;23.470;2022-11-02T09:32:07;93661.06;;;17.38;64.11
6038;BME280;3047;42.600;23.470;2022-11-02T09:34:33;93662.09;;;17.52;63.41
6038;BME280;3047;42.600;23.470;2022-11-02T09:37:00;93663.53;;;17.58;62.72
6038;BME280;3047;42.600;23.470;2022-11-02T09:39:28;93664.06;;;17.65;62.49
6038;BME280;3047;42.600;23.470;2022-11-02T09:42:02;93653.84;;;17.65;62.40
6038;BME280;3047;42.600;23.470;2022-11-02T09:44:41;93592.88;;;17.40;62.54
6038;BME280;3047;42.600;23.470;2022-11-02T09:47:13;93653.63;;;17.88;61.91
6038;BME280;3047;42.600;23.470;2022-11-02T09:49:40;93651.63;;;17.95;61.19
6038;BME280;3047;42.600;23.470;2022-11-02T09:52:14;93649.13;;;18.11;59.59
6038;BME280;3047;42.600;23.470;2022-11-02T09:54:48;93638.72;;;18.15;57.50
6038;BME280;3047;42.600;23.470;2022-11-02T09:57:29;93617.50;;;18.13;57.36
6038;BME280;3047;42.600;23.470;2022-11-02T10:00:00;93643.69;;;18.36;56.56
6038;BME280;3047;42.600;23.470;2022-11-02T10:02:31;93640.41;;;18.49;56.96
6038;BME280;3047;42.600;23.470;2022-11-02T10:05:12;93628.84;;;18.60;55.16
6038;BME280;3047;42.600;23.470;2022-11-02T10:08:16;93624.69;;;18.74;54.30
6038;BME280;3047;42.600;23.470;2022-11-02T10:10:53;93626.13;;;18.80;54.29
6038;BME280;3047;42.600;23.470;2022-11-02T10:13:32;93622.31;;;18.87;55.40
6038;BME280;3047;42.600;23.470;2022-11-02T10:16:05;93596.66;;;18.89;54.26
6038;BME280;3047;42.600;23.470;2022-11-02T10:18:34;93592.94;;;18.94;52.60
6038;BME280;3047;42.600;23.470;2022-11-02T10:21:05;93618.66;;;19.24;52.79
6038;BME280;3047;42.600;23.470;2022-11-02T10:23:38;93610.22;;;19.38;51.72
6038;BME280;3047;42.600;23.470;2022-11-02T10:26:10;93603.78;;;19.47;52.91
6038;BME280;3047;42.600;23.470;2022-11-02T10:28:42;93597.97;;;19.59;51.55
6038;BME280;3047;42.600;23.470;2022-11-02T10:31:20;93600.94;;;19.83;50.24
6038;BME280;3047;42.600;23.470;2022-11-02T10:33:48;93602.94;;;20.08;49.43
6038;BME280;3047;42.600;23.470;2022-11-02T10:36:25;93603.38;;;20.31;48.00
6038;BME280;3047;42.600;23.470;2022-11-02T10:39:08;93598.88;;;20.50;48.60
6038;BME280;3047;42.600;23.470;2022-11-02T10:41:49;93595.56;;;20.77;47.99
6038;BME280;3047;42.600;23.470;2022-11-02T10:44:29;93591.81;;;21.11;48.05
6038;BME280;3047;42.600;23.470;2022-11-02T10:47:06;93576.91;;;21.44;47.13
6038;BME280;3047;42.600;23.470;2022-11-02T10:52:34;93568.47;;;22.09;43.02
6038;BME280;3047;42.600;23.470;2022-11-02T10:55:02;93558.53;;;22.43;42.60
6038;BME280;3047;42.600;23.470;2022-11-02T10:57:31;93553.19;;;22.59;42.81
6038;BME280;3047;42.600;23.470;2022-11-02T11:00:21;93575.31;;;23.00;41.22
6038;BME280;3047;42.600;23.470;2022-11-02T11:03:02;93569.97;;;23.39;41.42
6038;BME280;3047;42.600;23.470;2022-11-02T11:05:28;93554.06;;;23.45;40.44
6038;BME280;3047;42.600;23.470;2022-11-02T11:07:55;93561.75;;;23.71;40.95
6038;BME280;3047;42.600;23.470;2022-11-02T11:10:23;93565.69;;;23.88;39.49
6038;BME280;3047;42.600;23.470;2022-11-02T11:12:51;93560.00;;;24.07;37.59
6038;BME280;3047;42.600;23.470;2022-11-02T11:15:21;93552.41;;;24.16;36.42
6038;BME280;3047;42.600;23.470;2022-11-02T11:17:49;93551.22;;;24.21;37.74
6038;BME280;3047;42.600;23.470;2022-11-02T11:20:31;93553.13;;;24.18;37.48
6038;BME280;3047;42.600;23.470;2022-11-02T11:23:18;93546.91;;;24.21;38.32
6038;BME280;3047;42.600;23.470;2022-11-02T11:25:59;93546.19;;;24.30;37.52
6038;BME280;3047;42.600;23.470;2022-11-02T11:28:30;93544.63;;;24.40;38.07
6038;BME280;3047;42.600;23.470;2022-11-02T11:31:03;93545.00;;;24.47;37.28
6038;BME280;3047;42.600;23.470;2022-11-02T11:33:31;93530.66;;;24.43;36.70
6038;BME280;3047;42.600;23.470;2022-11-02T11:35:59;93533.81;;;24.47;36.49
6038;BME280;3047;42.600;23.470;2022-11-02T11:38:26;93538.53;;;24.53;35.77
6038;BME280;3047;42.600;23.470;2022-11-02T11:40:55;93533.38;;;24.53;36.72
6038;BME280;3047;42.600;23.470;2022-11-02T11:43:24;93516.47;;;24.49;37.47
6038;BME280;3047;42.600;23.470;2022-11-02T11:45:58;93529.13;;;24.63;36.40
6038;BME280;3047;42.600;23.470;2022-11-02T11:48:33;93525.72;;;24.62;37.25
6038;BME280;3047;42.600;23.470;2022-11-02T11:51:01;93522.22;;;24.63;36.69
6038;BME280;3047;42.600;23.470;2022-11-02T11:53:29;93514.81;;;24.70;36.89
6038;BME280;3047;42.600;23.470;2022-11-02T11:55:57;93511.28;;;24.71;36.44
6038;BME280;3047;42.600;23.470;2022-11-02T11:58:25;93497.44;;;24.61;36.81
6038;BME280;3047;42.600;23.470;2022-11-02T12:01:15;93510.25;;;24.74;36.45
6038;BME280;3047;42.600;23.470;2022-11-02T12:03:49;93500.41;;;24.67;36.06
6038;BME280;3047;42.600;23.470;2022-11-02T12:06:23;93502.03;;;24.69;35.90
6038;BME280;3047;42.600;23.470;2022-11-02T12:08:57;93495.69;;;24.73;35.61
6038;BME280;3047;42.600;23.470;2022-11-02T12:11:36;93494.28;;;24.57;34.76
6038;BME280;3047;42.600;23.470;2022-11-02T12:14:15;93468.56;;;24.45;34.58
6038;BME280;3047;42.600;23.470;2022-11-02T12:17:01;93488.75;;;24.62;34.47
6038;BME280;3047;42.600;23.470;2022-11-02T12:19:41;93485.56;;;24.58;34.10
6038;BME280;3047;42.600;23.470;2022-11-02T12:22:20;93477.38;;;24.53;33.94
6038;BME280;3047;42.600;23.470;2022-11-02T12:25:29;93487.56;;;24.55;33.87
6038;BME280;3047;42.600;23.470;2022-11-02T12:28:04;93479.72;;;24.45;32.47
6038;BME280;3047;42.600;23.470;2022-11-02T12:30:47;93484.59;;;24.37;33.35
6038;BME280;3047;42.600;23.470;2022-11-02T12:33:30;93472.88;;;24.33;34.20
6038;BME280;3047;42.600;23.470;2022-11-02T12:36:05;93465.94;;;24.33;33.62
6038;BME280;3047;42.600;23.470;2022-11-02T12:39:08;93467.25;;;24.28;33.44
6038;BME280;3047;42.600;23.470;2022-11-02T12:41:51;93452.09;;;24.12;33.21
6038;BME280;3047;42.600;23.470;2022-11-02T12:44:33;93460.28;;;24.06;32.82
6038;BME280;3047;42.600;23.470;2022-11-02T12:47:15;93468.38;;;24.12;32.77
6038;BME280;3047;42.600;23.470;2022-11-02T12:49:51;93464.59;;;24.05;32.72
6038;BME280;3047;42.600;23.470;2022-11-02T12:52:31;93465.34;;;24.07;32.68
6038;BME280;3047;42.600;23.470;2022-11-02T12:55:01;93457.22;;;24.01;33.11
6038;BME280;3047;42.600;23.470;2022-11-02T12:57:33;93462.13;;;23.92;34.57
6038;BME280;3047;42.600;23.470;2022-11-02T13:00:04;93454.94;;;23.85;34.17
6038;BME280;3047;42.600;23.470;2022-11-02T13:02:38;93450.13;;;23.80;34.79
6038;BME280;3047;42.600;23.470;2022-11-02T13:05:13;93450.47;;;23.76;35.35
6038;BME280;3047;42.600;23.470;2022-11-02T13:07:47;93454.91;;;23.74;34.35
6038;BME280;3047;42.600;23.470;2022-11-02T13:10:19;93456.38;;;23.65;33.84
6038;BME280;3047;42.600;23.470;2022-11-02T13:12:53;93438.28;;;23.42;35.28
6038;BME280;3047;42.600;23.470;2022-11-02T13:15:23;93446.91;;;23.41;35.14
6038;BME280;3047;42.600;23.470;2022-11-02T13:17:53;93446.97;;;23.29;34.98
6038;BME280;3047;42.600;23.470;2022-11-02T13:20:26;93445.63;;;23.12;36.53
6038;BME280;3047;42.600;23.470;2022-11-02T13:22:56;93449.69;;;23.03;36.11
6038;BME280;3047;42.600;23.470;2022-11-02T13:25:31;93445.28;;;22.80;35.53
6038;BME280;3047;42.600;23.470;2022-11-02T13:28:02;93456.34;;;22.69;36.66
6038;BME280;3047;42.600;23.470;2022-11-02T13:30:32;93443.72;;;22.53;36.99
6038;BME280;3047;42.600;23.470;2022-11-02T13:33:03;93442.59;;;22.32;37.67
6038;BME280;3047;42.600;23.470;2022-11-02T13:35:37;93453.31;;;22.26;37.34